Latest Weather Observations for Yunta

IDS60801

Issued at 5:05 pm CST Wednesday 3 September 2014 (issued every 30 minutes, with the page automatically refreshed every 10 minutes)

About weather observations | Map of weather stations | Latest weather observations for SA | Other Formats
Station Details ID: 020062 Name: YUNTA AIRSTRIP Lat: -32.57 Lon: 139.56 Height: 300.0 m
Data from the previous 72 hours. | See also: Recent months at Yunta
Date/Time
CST
Temp
°C
App
Temp
°C
Dew
Point
Rel
Hum
%
Delta-T
°C
Wind Press
QNH
hPa
Press
MSL
hPa
Rain
since 9 am
mm
Dir
 
Spd
km/h
Gust
km/h
Spd
kts
Gust
kts
03/05:00pm 13.9 11.0 1.5 43 5.4 NNW 6 11 3 6 1019.1 1018.8 0.0
03/04:30pm 14.1 11.0 1.4 42 5.6 NNW 7 13 4 7 1019.4 1019.1 0.0
03/04:00pm 14.4 11.0 1.7 42 5.6 NW 9 20 5 11 1019.6 1019.3 0.0
03/03:30pm 14.3 10.4 0.9 40 5.8 WNW 11 20 6 11 1019.9 1019.6 0.0
03/03:00pm 14.5 10.3 1.8 42 5.6 NNW 13 24 7 13 1020.3 1020.0 0.0
03/02:30pm 14.2 10.0 1.8 43 5.5 NNW 13 20 7 11 1020.3 1020.0 0.0
03/02:00pm 14.3 9.8 1.9 43 5.5 NNW 15 19 8 10 1020.4 1020.1 0.0
03/01:30pm 13.5 9.4 2.1 46 5.0 NNW 13 24 7 13 1020.7 1020.4 0.0
03/01:00pm 13.5 9.3 1.8 45 5.2 NNW 13 20 7 11 1021.0 1020.7 0.0
03/12:30pm 13.4 9.6 2.0 46 5.0 N 11 22 6 12 1021.9 1021.7 0.0
03/12:00pm 13.1 9.7 1.8 46 4.9 N 9 20 5 11 1022.7 1022.4 0.0
03/11:30am 13.0 10.4 3.1 51 4.4 NW 6 9 3 5 1023.2 1022.9 0.0
03/11:00am 12.1 9.4 2.6 52 4.2 ENE 6 7 3 4 1023.6 1023.3 0.0
03/10:30am 11.9 9.8 3.9 58 3.6 ENE 4 9 2 5 1024.2 1023.9 0.0
03/10:00am 10.3 8.1 3.6 63 3.0 SE 4 13 2 7 1024.5 1024.3 0.0
03/09:30am 9.1 7.5 4.7 74 2.0 NNE 2 6 1 3 1024.8 1024.6 0.0
03/09:00am 6.6 5.1 4.8 88 0.8 SE 2 4 1 2 1025.2 1025.0 0.0
03/08:30am 4.9 3.6 3.9 93 0.4 CALM 0 2 0 1 1024.6 1024.4 0.0
03/08:00am 3.8 1.5 2.8 93 0.4 WSW 4 6 2 3 1024.9 1024.7 0.0
03/07:30am 2.6 0.5 1.6 93 0.4 WSW 2 4 1 2 1024.7 1024.5 0.0
03/07:00am 1.2 -0.8 0.0 92 0.4 CALM 0 6 0 3 1024.5 1024.3 0.0
03/06:30am 0.6 -1.5 -0.5 92 0.4 CALM 0 0 0 0 1024.4 1024.2 0.0
03/06:00am -0.3 -2.5 -1.6 91 0.4 S 0 0 0 0 1024.3 1024.0 0.0
03/05:30am 0.6 -1.5 -0.5 92 0.4 CALM 0 0 0 0 1024.3 1024.0 0.0
03/05:00am 0.5 -1.6 -0.9 90 0.5 CALM 0 4 0 2 1024.0 1023.7 0.0
03/04:30am 1.1 -0.9 -0.4 90 0.5 CALM 0 4 0 2 1023.9 1023.6 0.0
03/04:00am 1.2 -2.2 -0.6 88 0.7 SW 7 9 4 5 1024.2 1023.9 0.0
03/03:30am 1.8 -1.3 0.0 88 0.7 SW 6 9 3 5 1024.0 1023.7 0.0
03/03:00am 1.4 -0.7 -0.7 86 0.8 SSE 0 0 0 0 1024.3 1024.0 0.0
03/02:30am 2.5 -0.8 0.2 85 0.9 WSW 7 9 4 5 1024.5 1024.3 0.0
03/02:00am 3.0 -0.2 0.7 85 0.9 W 7 9 4 5 1024.8 1024.6 0.0
03/01:30am 3.1 0.9 0.8 85 0.9 W 2 2 1 1 1025.1 1024.9 0.0
03/01:00am 2.6 -0.6 -0.2 82 1.1 W 6 6 3 3 1025.2 1025.0 0.0
03/12:30am 4.0 1.0 0.9 80 1.2 SW 6 7 3 4 1025.3 1025.1 0.0
03/12:00am 4.5 2.4 1.5 81 1.2 WSW 2 4 1 2 1025.3 1025.1 0.0
 
Date/Time
CST
Temp
°C
App
Temp
°C
Dew
Point
Rel
Hum
%
Delta-T
°C
Wind Press
QNH
hPa
Press
MSL
hPa
Rain
since 9 am
mm
Dir
 
Spd
km/h
Gust
km/h
Spd
kts
Gust
kts
02/11:30pm 4.1 1.1 0.6 78 1.4 WSW 6 7 3 4 1025.2 1025.0 0.0
02/11:00pm 4.3 1.3 0.5 76 1.5 SW 6 7 3 4 1025.2 1025.0 0.0
02/10:30pm 5.5 2.3 0.9 72 1.8 SW 7 9 4 5 1025.6 1025.4 0.0
02/10:00pm 6.0 2.1 1.2 71 1.9 WSW 11 13 6 7 1025.6 1025.4 0.0
02/09:30pm 6.0 2.8 0.6 68 2.1 SSW 7 9 4 5 1025.2 1025.0 0.0
02/09:00pm 7.0 3.9 1.1 66 2.4 SSW 7 9 4 5 1025.0 1024.8 0.0
02/08:30pm 7.9 4.8 1.1 62 2.8 SW 7 11 4 6 1025.1 1024.9 0.0
02/08:00pm 8.8 5.6 0.5 56 3.4 SSW 7 11 4 6 1024.9 1024.7 0.0
02/07:30pm 9.7 6.2 1.1 55 3.6 S 9 13 5 7 1024.6 1024.4 0.0
02/07:00pm 10.3 6.4 0.9 52 3.9 SSW 11 13 6 7 1024.2 1023.9 0.0
02/06:30pm 11.4 7.8 0.5 47 4.6 S 9 11 5 6 1024.0 1023.7 0.0
02/06:00pm 12.8 8.4 0.5 43 5.2 SSE 13 20 7 11 1023.6 1023.3 0.0
02/05:30pm 13.6 8.4 -0.1 39 5.8 SSE 17 26 9 14 1023.4 1023.1 0.0
02/05:00pm 14.3 9.1 -0.2 37 6.2 SSE 17 22 9 12 1023.1 1022.8 0.0
02/04:30pm 14.1 8.4 0.4 39 5.9 S 20 28 11 15 1022.9 1022.6 0.0
02/04:00pm 14.0 7.5 0.6 40 5.8 S 24 33 13 18 1022.7 1022.4 0.0
02/03:30pm 16.0 9.7 -0.7 32 7.1 S 22 33 12 18 1022.3 1022.1 0.0
02/03:00pm 15.3 9.5 -0.4 34 6.7 S 20 30 11 16 1022.2 1022.0 0.0
02/02:30pm 14.9 7.6 0.0 36 6.4 S 28 44 15 24 1022.2 1022.0 0.0
02/02:00pm 15.0 8.1 0.1 36 6.4 S 26 35 14 19 1022.3 1022.1 0.0
02/01:30pm 15.3 8.8 0.3 36 6.5 S 24 37 13 20 1022.3 1022.1 0.0
02/01:00pm 14.4 8.5 -0.8 35 6.4 S 20 33 11 18 1022.6 1022.3 0.0
02/12:30pm 13.9 6.5 -0.5 37 6.0 S 28 39 15 21 1023.0 1022.7 0.0
02/12:00pm 14.3 7.5 0.9 40 5.8 S 26 39 14 21 1023.0 1022.7 0.0
02/11:30am 14.3 7.1 0.9 40 5.8 S 28 44 15 24 1023.0 1022.7 0.0
02/11:00am 12.9 5.1 1.6 46 4.9 SSW 32 41 17 22 1023.4 1023.1 0.0
02/10:30am 11.8 4.3 1.2 48 4.5 S 30 43 16 23 1023.7 1023.4 0.0
02/10:00am 11.8 4.1 2.3 52 4.2 S 32 43 17 23 1023.7 1023.4 0.0
02/09:30am 10.4 2.5 2.3 57 3.5 S 33 44 18 24 1023.7 1023.4 0.0
02/09:00am 10.0 2.2 2.8 61 3.1 SSW 33 48 18 26 1023.6 1023.3 1.0
02/08:55am 9.9 2.7 3.2 63 2.9 SSW 30 48 16 26 1023.7 1023.4 1.0
02/08:30am 9.1 3.1 3.5 68 2.5 SW 24 35 13 19 1023.6 1023.3 1.0
02/08:00am 7.8 2.8 3.7 75 1.8 SW 19 24 10 13 1023.3 1023.0 1.0
02/07:30am 6.3 2.0 3.1 80 1.4 SW 15 20 8 11 1023.0 1022.7 1.0
02/07:00am 4.7 0.6 2.4 85 0.9 WSW 13 17 7 9 1022.8 1022.5 1.0
02/06:30am 3.5 -0.7 1.5 87 0.8 WSW 13 17 7 9 1022.5 1022.2 1.0
02/06:00am 4.1 -0.1 1.8 85 0.9 WSW 13 17 7 9 1021.9 1021.7 1.0
02/05:30am 3.8 0.8 1.7 86 0.8 SSW 7 11 4 6 1021.6 1021.4 1.0
02/05:00am 3.9 1.0 1.6 85 0.9 S 6 9 3 5 1021.3 1021.0 1.0
02/04:30am 4.9 0.8 2.3 83 1.1 SW 13 19 7 10 1020.7 1020.4 1.0
02/04:00am 5.1 1.4 2.3 82 1.2 SW 11 15 6 8 1020.4 1020.1 1.0
02/03:30am 5.0 1.3 2.4 83 1.1 SW 11 15 6 8 1020.3 1020.0 1.0
02/03:00am 5.5 1.1 2.5 81 1.2 WSW 15 19 8 10 1020.0 1019.7 1.0
02/02:30am 6.0 0.9 2.8 80 1.3 SW 19 24 10 13 1020.2 1019.9 1.0
02/02:00am 6.0 1.2 2.8 80 1.3 SW 17 22 9 12 1020.0 1019.7 1.0
02/01:30am 6.0 3.1 2.6 79 1.4 SW 7 13 4 7 1020.0 1019.7 1.0
02/01:00am 6.3 2.0 3.3 81 1.3 WSW 15 20 8 11 1019.9 1019.6 1.0
02/12:30am 6.1 2.5 3.1 81 1.3 SW 11 13 6 7 1019.9 1019.6 1.0
02/12:00am 7.0 3.5 3.4 78 1.5 SW 11 17 6 9 1019.9 1019.6 1.0
 
Date/Time
CST
Temp
°C
App
Temp
°C
Dew
Point
Rel
Hum
%
Delta-T
°C
Wind Press
QNH
hPa
Press
MSL
hPa
Rain
since 9 am
mm
Dir
 
Spd
km/h
Gust
km/h
Spd
kts
Gust
kts
01/11:30pm 7.9 1.9 3.6 74 1.9 WSW 24 37 13 20 1019.8 1019.5 1.0
01/11:00pm 7.3 3.1 3.7 78 1.6 SW 15 19 8 10 1019.6 1019.3 1.0
01/10:30pm 8.0 3.1 4.2 77 1.7 WSW 19 26 10 14 1019.2 1018.9 1.0
01/10:00pm 8.4 3.6 4.4 76 1.8 WSW 19 24 10 13 1019.1 1018.8 1.0
01/09:30pm 8.7 3.9 4.5 75 1.9 WSW 19 22 10 12 1018.8 1018.6 1.0
01/09:00pm 7.6 4.2 4.2 79 1.5 WSW 11 15 6 8 1018.5 1018.2 1.0
01/08:30pm 8.5 5.2 4.3 75 1.9 WSW 11 17 6 9 1018.0 1017.7 1.0
01/08:00pm 9.3 6.3 3.9 69 2.4 SW 9 11 5 6 1017.8 1017.5 1.0
01/07:30pm 10.6 6.5 4.1 64 2.9 SW 15 19 8 10 1017.2 1016.9 1.0
01/07:00pm 11.1 6.1 3.6 60 3.4 WSW 19 24 10 13 1016.8 1016.5 1.0
01/06:30pm 11.4 6.3 2.9 56 3.8 WSW 19 24 10 13 1016.0 1015.7 1.0
01/06:00pm 12.6 7.4 3.6 54 4.1 WSW 20 26 11 14 1015.3 1015.0 1.0
01/05:30pm 13.2 7.6 1.2 44 5.2 WSW 20 30 11 16 1014.9 1014.6 1.0
01/05:00pm 14.6 8.8 4.3 50 4.8 WSW 24 37 13 20 1014.3 1014.0 1.0
01/04:30pm 14.4 8.4 5.2 54 4.4 WSW 26 33 14 18 1014.0 1013.7 1.0
01/04:00pm 14.4 10.9 8.6 68 3.0 SW 17 22 9 12 1013.9 1013.6 1.0
01/03:30pm 12.6 9.4 9.8 83 1.5 SW 17 22 9 12 1013.9 1013.6 1.0
01/03:00pm 11.8 8.6 10.0 89 0.9 SW 17 28 9 15 1013.6 1013.3 0.8
01/02:30pm 12.8 6.8 8.5 75 2.2 SW 30 43 16 23 1013.1 1012.8 0.6
01/02:00pm 15.3 10.4 8.3 63 3.6 WSW 24 33 13 18 1012.8 1012.4 0.4
01/01:30pm 14.2 9.3 8.6 69 2.9 WSW 24 35 13 19 1013.1 1012.8 0.4
01/01:00pm 14.8 11.2 8.3 65 3.3 W 17 24 9 13 1012.8 1012.4 0.4
01/12:30pm 14.3 10.3 8.3 67 3.1 WNW 19 26 10 14 1014.0 1013.7 0.4
01/12:00pm 14.3 11.5 8.7 69 2.9 WNW 13 24 7 13 1013.5 1013.2 0.4
01/11:30am 13.7 11.5 10.7 82 1.6 NNW 13 19 7 10 1013.6 1013.3 0.4
01/11:00am 13.3 12.4 10.5 83 1.5 N 6 7 3 4 1013.3 1013.0 0.4
01/10:30am 12.9 11.8 10.1 83 1.5 WNW 6 7 3 4 1014.1 1013.8 0.4
01/10:00am 12.7 10.6 9.7 82 1.6 W 11 15 6 8 1014.8 1014.5 0.0
01/09:30am 13.8 9.6 8.4 70 2.7 WSW 20 33 11 18 1014.3 1014.0 0.0
01/09:00am 14.5 11.7 7.1 61 3.7 W 11 17 6 9 1014.7 1014.9 0.0
01/08:30am 14.2 10.7 5.3 55 4.3 W 13 17 7 9 1014.2 1014.4 0.0
01/08:00am 13.6 11.1 1.6 44 5.3 W 4 6 2 3 1013.6 1013.7 0.0
01/07:30am 13.0 9.8 0.7 43 5.3 WSW 7 9 4 5 1013.3 1013.4 0.0
01/07:00am 12.9 8.8 -0.4 40 5.6 NNW 11 13 6 7 1012.4 1012.5 0.0
01/06:30am 12.6 8.4 -1.0 39 5.6 N 11 15 6 8 1011.7 1011.9 0.0
01/06:00am 10.2 6.8 -0.6 47 4.4 NNE 7 11 4 6 1011.6 1011.8 0.0
01/05:30am 10.4 8.3 -1.0 45 4.6 CALM 0 4 0 2 1012.1 1012.2 0.0
01/05:00am 9.6 7.5 -0.9 48 4.2 CALM 0 0 0 0 1012.2 1012.3 0.0
01/04:30am 10.2 7.7 -1.2 45 4.6 SW 2 7 1 4 1011.6 1011.8 0.0
01/04:00am 10.7 7.1 -2.0 41 5.0 N 7 9 4 5 1011.5 1011.7 0.0
01/03:30am 11.1 7.5 -2.3 39 5.3 N 7 11 4 6 1011.3 1011.4 0.0
01/03:00am 13.6 9.5 -3.2 31 6.6 WNW 9 15 5 8 1011.4 1011.6 0.0
01/02:30am 14.0 8.4 -2.8 31 6.7 NNW 17 19 9 10 1011.6 1011.8 0.0
01/02:00am 14.7 8.7 -2.7 30 7.0 NNW 19 20 10 11 1011.5 1011.7 0.0
01/01:30am 14.4 8.3 -2.5 31 6.8 N 20 26 11 14 1011.1 1011.2 0.0
01/01:00am 14.4 8.5 -2.5 31 6.8 N 19 24 10 13 1011.1 1011.2 0.0
01/12:30am 14.9 8.9 -3.0 29 7.2 NNW 19 22 10 12 1011.4 1011.6 0.0
01/12:00am 15.6 9.1 -2.8 28 7.5 N 22 28 12 15 1011.1 1011.2 0.0
 
Date/Time
CST
Temp
°C
App
Temp
°C
Dew
Point
Rel
Hum
%
Delta-T
°C
Wind Press
QNH
hPa
Press
MSL
hPa
Rain
since 9 am
mm
Dir
 
Spd
km/h
Gust
km/h
Spd
kts
Gust
kts
31/11:30pm 15.4 8.8 -3.0 28 7.4 N 22 28 12 15 1011.0 1011.1 0.0
31/11:00pm 15.5 9.3 -2.9 28 7.5 N 20 26 11 14 1011.1 1011.2 0.0
31/10:30pm 15.6 10.0 -2.8 28 7.5 N 17 22 9 12 1011.5 1011.7 0.0
31/10:00pm 16.3 11.8 -3.2 26 7.9 N 11 17 6 9 1012.2 1012.3 0.0
31/09:30pm 16.2 13.5 -2.8 27 7.8 W 2 7 1 4 1012.6 1012.7 0.0
31/09:00pm 16.9 13.2 -2.7 26 8.1 N 7 13 4 7 1012.5 1012.6 0.0
31/08:30pm 16.9 12.5 -2.7 26 8.1 NNW 11 15 6 8 1012.6 1012.7 0.0
31/08:00pm 17.4 12.9 -3.4 24 8.5 N 11 15 6 8 1012.9 1013.0 0.0
31/07:30pm 17.3 13.2 -2.9 25 8.3 NNW 9 13 5 7 1012.7 1012.8 0.0
31/07:00pm 18.5 15.0 -3.0 23 9.0 NNE 6 9 3 5 1012.7 1012.8 0.0
31/06:30pm 19.2 15.6 -3.6 21 9.5 N 6 7 3 4 1012.7 1012.8 0.0
31/06:00pm 21.1 15.7 -4.1 18 10.5 NNW 15 20 8 11 1012.7 1012.8 0.0
31/05:30pm 22.3 16.1 -4.7 16 11.3 N 19 24 10 13 1012.4 1012.5 0.0

Other Formats:

Comma delimited format used in spreadsheet applications
http://www.bom.gov.au/fwo/IDS60801/IDS60801.94684.axf

JavaScript Object Notation format (JSON) in row-major order
http://www.bom.gov.au/fwo/IDS60801/IDS60801.94684.json